Pagrindinis puslapis
METAR-TAF:

METAR-TAF

Oro uostai :

Ingolštatas, Vokietija

platuma: 48-43N, ilguma: 011-32E, Aukštis: 367 m

Dabartinis oras

Ataskaita buvo paskelbta 18 minutes, ne 09:20 UTC
Vėjas 5 kt iš Rytų
Temperatūra 13°C
Drėgmė 51%
Slėgis 1029 hPa
Matomumas 10 km arba daugiau
Su prošvaistėmis ne aukštis 34000 ft

METAR: ETSI 200920Z 08005KT 9999 BKN340 13/03 Q1029 BLU+BLU+

Laikas: 11:38 (09:38 UTC)

Prognozė

Ataskaita buvo paskelbta 2 valandos ir 17 minutes, ne 07:21 UTC
Prognozė galioja nuo 20 metu 08 UTC su 20 metu 17 UTC
Vėjas 7 kt iš Rytų/Šiaurės Rytų
Matomumas 10 km arba daugiau
Išsisklaidę debesys ne aukštis 28000 ft
Su prošvaistėmis ne aukštis 32000 ft

TAF: ETSI 200721Z 2008/2017 07007KT 9999 NSW SCT280 BKN320

Orai ataskaitas ir orų prognozės (METAR, TAF).

turimą stotys yra geltonos ir raudonos taškus žemėlapyje.

Perkelti pele per norėdami pamatyti stoties vardą.

Tada spustelėkite, norėdami matyti oro stebėjimo ir prognozės.

Norėdami pakeisti žemėlapį: spustelėkite ant žalios mygtukų su juodo kryžiaus žemyn,; žalią mygtuką su brūkšneliu, jei norite nutolinti; arba žalių rodyklių gretimoms žemėlapius.


METAR-TAF: